createdAt,value
2022-08-23T00:00:28.286Z,24.24
2022-08-23T00:04:35.410Z,24.21
2022-08-23T00:08:37.934Z,24.15
2022-08-23T00:12:49.882Z,24.11
2022-08-23T00:16:52.809Z,24.08
2022-08-23T00:20:54.394Z,24.04
2022-08-23T00:24:56.060Z,24.04
2022-08-23T00:28:57.621Z,23.97
2022-08-23T00:32:59.301Z,23.93
2022-08-23T00:37:01.876Z,23.89
2022-08-23T00:41:03.768Z,23.87
2022-08-23T00:45:25.596Z,23.84
2022-08-23T00:49:28.286Z,23.79
2022-08-23T00:53:38.028Z,23.75
2022-08-23T00:57:40.951Z,23.69
2022-08-23T01:01:48.545Z,23.67
2022-08-23T01:06:15.750Z,23.67
2022-08-23T01:10:35.727Z,23.63
2022-08-23T01:14:57.261Z,23.57
2022-08-23T01:19:00.358Z,23.57
2022-08-23T01:23:14.179Z,23.52
2022-08-23T01:27:15.997Z,23.49
2022-08-23T01:31:18.579Z,23.45
2022-08-23T01:35:31.042Z,23.41
2022-08-23T01:39:32.840Z,23.37
2022-08-23T01:43:34.423Z,23.34
2022-08-23T01:47:36.083Z,23.34
2022-08-23T01:51:38.786Z,23.37
2022-08-23T01:55:41.995Z,23.39
2022-08-23T01:59:44.038Z,23.41
2022-08-23T02:03:46.017Z,23.41
2022-08-23T02:07:51.274Z,23.38
2022-08-23T02:11:54.746Z,23.34
2022-08-23T02:15:58.358Z,23.31
2022-08-23T02:20:03.073Z,23.25
2022-08-23T02:24:07.955Z,23.22
2022-08-23T02:28:09.741Z,23.23
2022-08-23T02:32:15.743Z,23.19
2022-08-23T02:40:24.554Z,23.12
2022-08-23T02:44:26.500Z,23.12
2022-08-23T02:48:32.387Z,23.07
2022-08-23T02:52:39.346Z,23.07
2022-08-23T02:56:40.949Z,23.04
2022-08-23T03:00:48.040Z,22.94
2022-08-23T03:04:49.721Z,22.88
2022-08-23T03:08:51.381Z,22.81
2022-08-23T03:12:53.266Z,22.76
2022-08-23T03:16:58.174Z,22.70
2022-08-23T03:21:00.043Z,22.67
2022-08-23T03:25:01.775Z,22.64
2022-08-23T03:29:15.073Z,22.63
2022-08-23T03:33:47.133Z,22.60
2022-08-23T03:37:52.332Z,22.54
2022-08-23T03:41:57.145Z,22.48
2022-08-23T03:46:01.089Z,22.41
2022-08-23T03:50:04.066Z,22.33
2022-08-23T03:54:07.523Z,22.26
2022-08-23T03:58:10.972Z,22.24
2022-08-23T04:02:13.549Z,22.27
2022-08-23T04:06:17.083Z,22.31
2022-08-23T04:10:19.118Z,22.30
2022-08-23T04:14:24.818Z,22.27
2022-08-23T04:18:26.486Z,22.20
2022-08-23T04:22:28.174Z,22.06
2022-08-23T04:26:30.339Z,21.93
2022-08-23T04:30:33.320Z,21.93
2022-08-23T04:34:36.822Z,21.86
2022-08-23T04:38:38.754Z,21.82
2022-08-23T04:42:42.269Z,21.74
2022-08-23T04:46:44.159Z,21.71
2022-08-23T04:50:46.822Z,21.71
2022-08-23T04:54:52.487Z,21.70
2022-08-23T04:59:04.982Z,21.71
2022-08-23T05:03:07.923Z,21.71
2022-08-23T05:07:09.554Z,21.67
2022-08-23T05:11:11.694Z,21.71
2022-08-23T05:15:15.940Z,21.71
2022-08-23T05:19:21.685Z,21.68
2022-08-23T05:23:31.633Z,21.73
2022-08-23T05:27:47.487Z,21.75
2022-08-23T05:31:49.729Z,21.81
2022-08-23T05:35:53.109Z,21.81
2022-08-23T05:39:55.128Z,21.77
2022-08-23T05:43:56.810Z,21.73
2022-08-23T05:47:58.426Z,21.73
2022-08-23T05:52:13.098Z,21.75
2022-08-23T05:56:24.119Z,21.77
2022-08-23T06:00:30.777Z,21.81
2022-08-23T06:04:42.008Z,21.86
2022-08-23T06:08:48.547Z,21.86
2022-08-23T06:12:50.424Z,21.90
2022-08-23T06:16:55.777Z,21.90
2022-08-23T06:21:03.323Z,21.98
2022-08-23T06:25:14.951Z,21.99
2022-08-23T06:29:30.200Z,22.04
2022-08-23T06:33:57.631Z,22.08
2022-08-23T06:38:12.765Z,22.12
2022-08-23T06:42:41.746Z,22.15
2022-08-23T06:46:44.715Z,22.20
2022-08-23T06:50:47.887Z,22.26
2022-08-23T06:55:05.144Z,22.35
2022-08-23T06:59:16.036Z,22.46
2022-08-23T07:03:46.942Z,22.54
2022-08-23T07:08:07.473Z,22.60
2022-08-23T07:12:10.948Z,22.66
2022-08-23T07:16:19.963Z,22.67
2022-08-23T07:20:21.689Z,22.74
2022-08-23T07:24:23.662Z,22.82
2022-08-23T07:28:29.865Z,22.86
2022-08-23T07:32:31.712Z,22.96
2022-08-23T07:36:41.017Z,23.06
2022-08-23T07:40:43.261Z,23.16
2022-08-23T07:44:47.444Z,23.25
2022-08-23T07:48:54.350Z,23.34
2022-08-23T07:53:31.818Z,23.42
2022-08-23T07:57:39.832Z,23.54
2022-08-23T08:02:06.651Z,23.63
2022-08-23T08:06:12.803Z,23.74
2022-08-23T08:10:15.357Z,23.86
2022-08-23T08:14:17.575Z,23.96
2022-08-23T08:18:31.960Z,24.08
2022-08-23T08:23:00.557Z,24.18
2022-08-23T08:27:02.326Z,24.30
2022-08-23T08:31:05.176Z,24.34
2022-08-23T08:35:08.659Z,24.33
2022-08-23T08:39:16.749Z,24.46
2022-08-23T08:43:27.698Z,24.64
2022-08-23T08:47:56.246Z,24.82
2022-08-23T08:52:22.138Z,25.04
2022-08-23T08:56:33.017Z,25.19
2022-08-23T09:00:58.721Z,25.31
2022-08-23T09:05:05.784Z,25.35
2022-08-23T09:09:30.579Z,25.49
2022-08-23T09:14:14.801Z,25.64
2022-08-23T09:18:17.037Z,25.78
2022-08-23T09:22:30.276Z,25.91
2022-08-23T09:26:32.139Z,26.04
2022-08-23T09:30:53.097Z,26.19
2022-08-23T09:35:24.506Z,26.31
2022-08-23T09:39:36.471Z,26.41
2022-08-23T09:43:48.305Z,26.49
2022-08-23T09:47:51.873Z,26.65
2022-08-23T09:51:59.076Z,26.72
2022-08-23T09:56:13.355Z,26.84
2022-08-23T10:00:16.658Z,26.97
2022-08-23T10:04:47.103Z,27.11
2022-08-23T10:08:56.403Z,27.20
2022-08-23T10:13:00.772Z,27.25
2022-08-23T10:17:13.975Z,27.34
2022-08-23T10:21:24.200Z,27.45
2022-08-23T10:25:30.691Z,27.59
2022-08-23T10:29:47.517Z,27.74
2022-08-23T10:34:06.475Z,27.84
2022-08-23T10:38:29.540Z,27.98
2022-08-23T10:43:05.983Z,28.06
2022-08-23T10:47:30.785Z,28.15
2022-08-23T10:51:45.332Z,28.27
2022-08-23T10:56:04.343Z,28.42
2022-08-23T11:00:19.648Z,28.58
2022-08-23T11:04:48.439Z,28.69
2022-08-23T11:09:18.745Z,28.77
2022-08-23T11:13:27.856Z,28.94
2022-08-23T11:17:56.082Z,29.02
2022-08-23T11:22:22.661Z,29.14
2022-08-23T11:26:27.739Z,29.21
2022-08-23T11:30:32.792Z,29.29
2022-08-23T11:34:54.188Z,29.39
2022-08-23T11:38:55.872Z,29.45
2022-08-23T11:43:05.398Z,29.60
2022-08-23T11:47:10.304Z,29.78
2022-08-23T11:51:21.161Z,29.88
2022-08-23T11:55:54.244Z,29.99
2022-08-23T12:00:17.542Z,30.15
2022-08-23T12:04:50.010Z,30.29
2022-08-23T12:09:02.022Z,30.45
2022-08-23T12:13:32.476Z,30.60
2022-08-23T12:17:40.488Z,30.68
2022-08-23T12:21:50.425Z,30.88
2022-08-23T12:26:26.156Z,31.03
2022-08-23T12:30:39.801Z,31.12
2022-08-23T12:34:49.811Z,31.32
2022-08-23T12:39:25.296Z,31.50
2022-08-23T12:43:30.309Z,31.67
2022-08-23T12:47:32.827Z,31.62
2022-08-23T12:51:52.748Z,31.75
2022-08-23T12:56:01.598Z,31.97
2022-08-23T13:00:17.324Z,32.19
2022-08-23T13:04:20.220Z,32.34
2022-08-23T13:08:33.585Z,32.50
2022-08-23T13:12:37.507Z,32.61
2022-08-23T13:16:44.305Z,32.73
2022-08-23T13:20:45.925Z,32.93
2022-08-23T13:25:01.291Z,33.11
2022-08-23T13:29:17.916Z,33.29
2022-08-23T13:33:20.731Z,33.35
2022-08-23T13:37:31.149Z,33.49
2022-08-23T13:41:39.045Z,33.62
2022-08-23T13:45:48.316Z,33.68
2022-08-23T13:49:51.423Z,33.82
2022-08-23T13:53:54.610Z,33.90
2022-08-23T13:57:57.140Z,33.89
2022-08-23T14:02:08.420Z,34.06
2022-08-23T14:06:11.049Z,34.08
2022-08-23T14:10:13.910Z,34.18
2022-08-23T14:14:15.612Z,34.30
2022-08-23T14:18:17.734Z,34.31
2022-08-23T14:22:19.696Z,34.27
2022-08-23T14:26:23.201Z,34.36
2022-08-23T14:30:29.323Z,34.40
2022-08-23T14:34:31.540Z,34.34
2022-08-23T14:38:33.194Z,34.36
2022-08-23T14:42:35.103Z,34.50
2022-08-23T14:46:36.761Z,34.67
2022-08-23T14:50:41.178Z,34.83
2022-08-23T14:54:42.959Z,34.81
2022-08-23T14:58:44.790Z,34.94
2022-08-23T15:02:48.723Z,35.06
2022-08-23T15:07:16.152Z,35.06
2022-08-23T15:15:37.361Z,34.98
2022-08-23T15:19:39.828Z,35.02
2022-08-23T15:23:43.333Z,35.00
2022-08-23T15:27:46.585Z,34.19
2022-08-23T15:31:48.277Z,33.50
2022-08-23T15:35:52.094Z,33.06
2022-08-23T15:39:54.042Z,32.99
2022-08-23T15:43:55.703Z,33.40
2022-08-23T15:47:59.054Z,33.72
2022-08-23T15:52:00.726Z,33.92
2022-08-23T15:56:05.791Z,34.15
2022-08-23T16:00:08.317Z,34.28
2022-08-23T16:04:13.903Z,34.45
2022-08-23T16:08:24.700Z,34.43
2022-08-23T16:12:29.893Z,34.31
2022-08-23T16:16:36.610Z,34.28
2022-08-23T16:20:38.607Z,34.36
2022-08-23T16:24:40.458Z,34.30
2022-08-23T16:28:47.751Z,34.33
2022-08-23T16:32:49.318Z,34.33
2022-08-23T16:36:56.429Z,34.23
2022-08-23T16:41:00.056Z,34.12
2022-08-23T16:45:02.106Z,34.01
2022-08-23T16:49:03.803Z,33.96
2022-08-23T16:53:07.389Z,33.90
2022-08-23T16:57:09.755Z,33.79
2022-08-23T17:01:13.932Z,33.71
2022-08-23T17:05:18.324Z,33.59
2022-08-23T17:09:25.394Z,33.45
2022-08-23T17:13:27.198Z,33.29
2022-08-23T17:17:28.785Z,33.09
2022-08-23T17:21:30.435Z,32.90
2022-08-23T17:25:32.108Z,32.73
2022-08-23T17:29:37.507Z,32.53
2022-08-23T17:33:39.915Z,32.32
2022-08-23T17:37:41.894Z,32.12
2022-08-23T17:41:45.496Z,31.91
2022-08-23T17:45:50.700Z,31.68
2022-08-23T17:49:52.461Z,31.46
2022-08-23T17:53:54.089Z,31.27
2022-08-23T17:57:58.181Z,31.09
2022-08-23T18:02:07.668Z,30.88
2022-08-23T18:06:16.917Z,30.73
2022-08-23T18:10:19.152Z,30.59
2022-08-23T18:14:20.739Z,30.46
2022-08-23T18:18:22.978Z,30.30
2022-08-23T18:22:25.026Z,30.18
2022-08-23T18:26:45.714Z,30.04
2022-08-23T18:30:51.627Z,29.89
2022-08-23T18:34:53.360Z,29.79
2022-08-23T18:38:55.345Z,29.67
2022-08-23T18:42:57.233Z,29.57
2022-08-23T18:47:00.595Z,29.47
2022-08-23T18:51:04.118Z,29.37
2022-08-23T18:55:06.845Z,29.26
2022-08-23T18:59:08.498Z,29.18
2022-08-23T19:03:11.091Z,29.10
2022-08-23T19:07:12.957Z,29.00
2022-08-23T19:11:15.885Z,28.92
2022-08-23T19:15:18.469Z,28.83
2022-08-23T19:19:20.085Z,28.74
2022-08-23T19:23:22.012Z,28.65
2022-08-23T19:27:23.707Z,28.60
2022-08-23T19:31:26.747Z,28.52
2022-08-23T19:35:31.287Z,28.45
2022-08-23T19:39:32.929Z,28.39
2022-08-23T19:43:35.433Z,28.32
2022-08-23T19:47:37.453Z,28.23
2022-08-23T19:51:39.791Z,28.15
2022-08-23T19:55:43.530Z,28.08
2022-08-23T19:59:46.383Z,27.96
2022-08-23T20:03:48.024Z,27.69
2022-08-23T20:07:49.605Z,27.63
2022-08-23T20:11:55.164Z,27.61
2022-08-23T20:15:56.805Z,27.59
2022-08-23T20:19:58.622Z,27.59
2022-08-23T20:24:06.319Z,27.55
2022-08-23T20:28:08.335Z,27.46
2022-08-23T20:32:10.520Z,27.43
2022-08-23T20:36:12.956Z,27.33
2022-08-23T20:40:14.944Z,26.94
2022-08-23T20:44:16.900Z,26.83
2022-08-23T20:48:18.859Z,26.75
2022-08-23T20:52:20.538Z,26.68
2022-08-23T20:56:23.337Z,26.64
2022-08-23T21:00:25.012Z,26.66
2022-08-23T21:04:29.957Z,26.68
2022-08-23T21:08:32.865Z,26.68
2022-08-23T21:12:36.515Z,26.66
2022-08-23T21:16:38.472Z,26.68
2022-08-23T21:20:40.042Z,26.65
2022-08-23T21:24:42.017Z,26.61
2022-08-23T21:28:43.773Z,26.59
2022-08-23T21:32:45.546Z,26.57
2022-08-23T21:36:47.207Z,26.57
2022-08-23T21:40:59.376Z,26.54
2022-08-23T21:45:00.936Z,26.51
2022-08-23T21:49:05.678Z,26.50
2022-08-23T21:53:07.575Z,26.49
2022-08-23T21:57:09.250Z,26.44
2022-08-23T22:01:11.009Z,26.39
2022-08-23T22:05:12.559Z,26.34
2022-08-23T22:09:18.525Z,26.29
2022-08-23T22:13:20.131Z,26.28
2022-08-23T22:17:21.787Z,26.24
2022-08-23T22:21:23.604Z,26.21
2022-08-23T22:25:25.529Z,26.19
2022-08-23T22:29:27.127Z,26.12
2022-08-23T22:33:28.865Z,26.11
2022-08-23T22:37:30.426Z,26.06
2022-08-23T22:41:31.977Z,26.03
2022-08-23T22:45:33.529Z,25.98
2022-08-23T22:49:35.187Z,25.94
2022-08-23T22:53:39.216Z,25.86
2022-08-23T22:57:40.809Z,25.86
2022-08-23T23:01:48.478Z,25.86
2022-08-23T23:05:50.954Z,25.83
2022-08-23T23:09:52.561Z,25.79
2022-08-23T23:13:54.717Z,25.78
2022-08-23T23:17:56.290Z,25.72
2022-08-23T23:21:58.730Z,25.67
2022-08-23T23:26:00.750Z,25.61
2022-08-23T23:30:02.346Z,25.53
2022-08-23T23:34:04.261Z,25.45
2022-08-23T23:38:07.083Z,25.39
2022-08-23T23:42:08.709Z,25.34
2022-08-23T23:46:13.545Z,25.29
2022-08-23T23:50:15.980Z,25.19
2022-08-23T23:54:17.564Z,25.09
2022-08-23T23:58:19.198Z,24.99
